createdAt,value
2018-09-10T00:00:46.769Z,17.70
2018-09-10T00:01:46.827Z,17.56
2018-09-10T00:02:46.891Z,17.49
2018-09-10T00:03:46.954Z,17.54
2018-09-10T00:04:47.027Z,17.65
2018-09-10T00:05:47.086Z,17.67
2018-09-10T00:06:47.146Z,17.70
2018-09-10T00:07:47.212Z,17.64
2018-09-10T00:08:47.274Z,17.71
2018-09-10T00:09:47.342Z,17.68
2018-09-10T00:10:47.411Z,17.65
2018-09-10T00:11:47.467Z,17.68
2018-09-10T00:12:47.531Z,17.67
2018-09-10T00:13:47.595Z,17.67
2018-09-10T00:14:47.671Z,17.68
2018-09-10T00:15:47.731Z,17.72
2018-09-10T00:16:47.787Z,17.74
2018-09-10T00:17:47.851Z,17.82
2018-09-10T00:18:47.915Z,17.85
2018-09-10T00:19:47.995Z,17.82
2018-09-10T00:20:48.057Z,17.83
2018-09-10T00:21:48.107Z,17.83
2018-09-10T00:22:48.183Z,17.85
2018-09-10T00:23:48.239Z,18.01
2018-09-10T00:24:48.299Z,17.94
2018-09-10T00:25:48.731Z,17.95
2018-09-10T00:26:48.432Z,17.86
2018-09-10T00:27:48.491Z,17.95
2018-09-10T00:28:48.560Z,17.97
2018-09-10T00:29:48.623Z,18.00
2018-09-10T00:30:48.688Z,17.97
2018-09-10T00:31:48.859Z,17.97
2018-09-10T00:32:48.816Z,18.05
2018-09-10T00:33:48.880Z,18.01
2018-09-10T00:34:48.944Z,18.03
2018-09-10T00:35:49.008Z,18.03
2018-09-10T00:36:49.172Z,18.01
2018-09-10T00:37:49.140Z,18.01
2018-09-10T00:38:49.200Z,18.03
2018-09-10T00:39:49.268Z,17.98
2018-09-10T00:40:49.327Z,17.94
2018-09-10T00:41:49.400Z,18.04
2018-09-10T00:42:49.464Z,17.98
2018-09-10T00:43:49.520Z,18.00
2018-09-10T00:44:49.584Z,17.97
2018-09-10T00:45:49.648Z,17.92
2018-09-10T00:46:49.720Z,17.97
2018-09-10T00:47:49.784Z,17.90
2018-09-10T00:48:49.844Z,17.83
2018-09-10T00:49:49.910Z,17.86
2018-09-10T00:50:49.972Z,17.82
2018-09-10T00:51:50.070Z,17.80
2018-09-10T00:52:50.108Z,17.67
2018-09-10T00:53:50.165Z,17.68
2018-09-10T00:54:50.228Z,17.64
2018-09-10T00:55:50.292Z,17.57
2018-09-10T00:56:50.364Z,17.51
2018-09-10T00:57:50.428Z,17.44
2018-09-10T00:58:50.486Z,17.44
2018-09-10T00:59:50.548Z,17.33
2018-09-10T01:00:50.613Z,17.33
2018-09-10T01:01:50.684Z,17.30
2018-09-10T01:02:50.753Z,17.33
2018-09-10T01:03:50.805Z,17.29
2018-09-10T01:04:50.869Z,17.33
2018-09-10T01:05:50.937Z,17.34
2018-09-10T01:06:51.004Z,17.42
2018-09-10T01:07:51.069Z,17.36
2018-09-10T01:08:51.133Z,17.42
2018-09-10T01:09:51.196Z,17.38
2018-09-10T01:10:51.257Z,17.36
2018-09-10T01:11:51.505Z,17.30
2018-09-10T01:12:51.392Z,17.30
2018-09-10T01:13:51.460Z,17.33
2018-09-10T01:14:51.513Z,17.19
2018-09-10T01:15:51.580Z,17.26
2018-09-10T01:16:51.653Z,17.33
2018-09-10T01:17:51.713Z,17.36
2018-09-10T01:18:51.770Z,17.41
2018-09-10T01:19:51.834Z,17.33
2018-09-10T01:20:51.897Z,17.44
2018-09-10T01:21:51.969Z,17.39
2018-09-10T01:22:52.034Z,17.42
2018-09-10T01:23:52.089Z,17.38
2018-09-10T01:24:52.153Z,17.36
2018-09-10T01:25:52.218Z,17.38
2018-09-10T01:26:52.385Z,17.26
2018-09-10T01:27:52.345Z,17.36
2018-09-10T01:28:52.410Z,17.38
2018-09-10T01:29:52.477Z,17.38
2018-09-10T01:30:52.545Z,17.24
2018-09-10T01:31:52.611Z,17.27
2018-09-10T01:32:52.673Z,17.34
2018-09-10T01:33:52.738Z,17.26
2018-09-10T01:34:52.799Z,17.36
2018-09-10T01:35:52.861Z,17.38
2018-09-10T01:36:52.930Z,17.44
2018-09-10T01:37:52.998Z,17.44
2018-09-10T01:38:53.054Z,17.46
2018-09-10T01:39:53.126Z,17.48
2018-09-10T01:40:53.182Z,17.48
2018-09-10T01:41:53.315Z,17.49
2018-09-10T01:42:53.314Z,17.49
2018-09-10T01:43:53.374Z,17.51
2018-09-10T01:44:53.438Z,17.49
2018-09-10T01:45:53.502Z,17.56
2018-09-10T01:46:53.574Z,17.52
2018-09-10T01:47:53.638Z,17.51
2018-09-10T01:48:53.695Z,17.49
2018-09-10T01:49:53.759Z,17.49
2018-09-10T01:50:53.822Z,17.46
2018-09-10T01:51:53.895Z,17.46
2018-09-10T01:52:53.959Z,17.46
2018-09-10T01:53:54.014Z,17.51
2018-09-10T01:54:54.082Z,17.45
2018-09-10T01:55:54.147Z,17.39
2018-09-10T01:56:54.234Z,17.39
2018-09-10T01:57:54.274Z,17.30
2018-09-10T01:58:54.339Z,17.27
2018-09-10T01:59:54.406Z,17.23
2018-09-10T02:00:54.467Z,17.14
2018-09-10T02:01:54.539Z,17.14
2018-09-10T02:02:54.603Z,17.12
2018-09-10T02:03:54.659Z,17.05
2018-09-10T02:04:54.723Z,16.97
2018-09-10T02:05:54.788Z,16.99
2018-09-10T02:06:54.863Z,16.87
2018-09-10T02:07:54.923Z,16.89
2018-09-10T02:08:54.979Z,16.74
2018-09-10T02:09:55.039Z,16.68
2018-09-10T02:10:55.107Z,16.61
2018-09-10T02:11:55.267Z,16.61
2018-09-10T02:12:55.235Z,16.54
2018-09-10T02:13:55.299Z,16.50
2018-09-10T02:14:55.365Z,16.38
2018-09-10T02:15:55.428Z,16.38
2018-09-10T02:16:55.505Z,16.36
2018-09-10T02:17:55.564Z,16.33
2018-09-10T02:18:55.619Z,16.33
2018-09-10T02:19:55.684Z,16.33
2018-09-10T02:20:55.753Z,16.28
2018-09-10T02:21:55.819Z,16.24
2018-09-10T02:22:55.886Z,16.29
2018-09-10T02:23:55.940Z,16.24
2018-09-10T02:24:56.004Z,16.28
2018-09-10T02:25:56.072Z,16.28
2018-09-10T02:26:56.160Z,16.28
2018-09-10T02:27:56.196Z,16.23
2018-09-10T02:28:56.260Z,16.20
2018-09-10T02:29:56.328Z,16.15
2018-09-10T02:30:56.392Z,16.09
2018-09-10T02:31:56.461Z,16.17
2018-09-10T02:32:56.536Z,16.08
2018-09-10T02:33:56.580Z,16.00
2018-09-10T02:34:56.644Z,16.02
2018-09-10T02:35:56.712Z,15.95
2018-09-10T02:36:56.780Z,15.94
2018-09-10T02:37:56.847Z,15.97
2018-09-10T02:38:56.900Z,15.95
2018-09-10T02:39:56.965Z,15.97
2018-09-10T02:40:57.028Z,15.94
2018-09-10T02:41:57.365Z,15.90
2018-09-10T02:42:57.157Z,15.91
2018-09-10T02:43:57.221Z,15.86
2018-09-10T02:44:57.284Z,15.83
2018-09-10T02:45:57.349Z,15.88
2018-09-10T02:46:57.421Z,15.82
2018-09-10T02:47:57.485Z,15.83
2018-09-10T02:48:57.544Z,15.75
2018-09-10T02:49:57.606Z,15.72
2018-09-10T02:50:57.669Z,15.68
2018-09-10T02:51:57.741Z,15.75
2018-09-10T02:52:57.805Z,15.64
2018-09-10T02:53:57.861Z,15.62
2018-09-10T02:54:57.988Z,15.58
2018-09-10T02:55:57.989Z,15.57
2018-09-10T02:56:58.061Z,15.55
2018-09-10T02:57:58.131Z,15.52
2018-09-10T02:58:58.181Z,15.64
2018-09-10T02:59:58.245Z,15.68
2018-09-10T03:00:58.309Z,15.58
2018-09-10T03:01:58.382Z,15.58
2018-09-10T03:02:58.443Z,15.57
2018-09-10T03:03:58.500Z,15.57
2018-09-10T03:04:58.562Z,15.42
2018-09-10T03:05:58.626Z,15.49
2018-09-10T03:06:58.698Z,15.42
2018-09-10T03:07:58.762Z,15.49
2018-09-10T03:08:58.818Z,15.44
2018-09-10T03:09:58.882Z,15.43
2018-09-10T03:10:58.946Z,15.43
2018-09-10T03:11:59.018Z,15.43
2018-09-10T03:12:59.082Z,15.46
2018-09-10T03:13:59.138Z,15.40
2018-09-10T03:14:59.203Z,15.42
2018-09-10T03:15:59.266Z,15.35
2018-09-10T03:16:59.338Z,15.37
2018-09-10T03:17:59.476Z,15.36
2018-09-10T03:18:59.458Z,15.35
2018-09-10T03:19:59.523Z,15.33
2018-09-10T03:20:59.588Z,15.31
2018-09-10T03:21:59.658Z,15.31
2018-09-10T03:22:59.718Z,15.29
2018-09-10T03:23:59.830Z,15.28
2018-09-10T03:24:59.838Z,15.22
2018-09-10T03:25:59.902Z,15.25
2018-09-10T03:26:59.974Z,15.33
2018-09-10T03:28:00.038Z,15.24
2018-09-10T03:29:00.095Z,15.22
2018-09-10T03:30:00.161Z,15.22
2018-09-10T03:31:00.229Z,15.21
2018-09-10T03:32:00.296Z,15.22
2018-09-10T03:33:00.503Z,15.21
2018-09-10T03:34:00.414Z,15.22
2018-09-10T03:35:00.479Z,15.11
2018-09-10T03:36:00.547Z,15.10
2018-09-10T03:37:00.602Z,15.25
2018-09-10T03:38:00.674Z,15.17
2018-09-10T03:39:00.739Z,15.21
2018-09-10T03:40:00.794Z,15.22
2018-09-10T03:41:00.858Z,15.22
2018-09-10T03:42:00.923Z,15.17
2018-09-10T03:43:00.994Z,15.21
2018-09-10T03:44:01.059Z,15.31
2018-09-10T03:45:01.115Z,15.33
2018-09-10T03:46:01.183Z,15.35
2018-09-10T03:47:01.243Z,15.35
2018-09-10T03:48:01.303Z,15.31
2018-09-10T03:49:01.403Z,15.31
2018-09-10T03:50:01.431Z,15.35
2018-09-10T03:51:01.496Z,15.37
2018-09-10T03:52:01.559Z,15.42
2018-09-10T03:53:01.623Z,15.44
2018-09-10T03:54:01.695Z,15.46
2018-09-10T03:55:01.759Z,15.42
2018-09-10T03:56:01.815Z,15.42
2018-09-10T03:57:01.883Z,15.52
2018-09-10T03:58:01.944Z,15.55
2018-09-10T03:59:02.011Z,15.51
2018-09-10T04:00:02.079Z,15.57
2018-09-10T04:01:02.132Z,15.58
2018-09-10T04:02:02.195Z,15.58
2018-09-10T04:03:02.260Z,15.54
2018-09-10T04:04:02.415Z,15.55
2018-09-10T04:05:02.388Z,15.61
2018-09-10T04:06:02.455Z,15.62
2018-09-10T04:07:02.516Z,15.68
2018-09-10T04:08:02.579Z,15.75
2018-09-10T04:09:02.672Z,15.65
2018-09-10T04:10:02.712Z,15.82
2018-09-10T04:11:02.772Z,15.77
2018-09-10T04:12:02.848Z,15.80
2018-09-10T04:13:02.896Z,15.82
2018-09-10T04:14:02.968Z,15.91
2018-09-10T04:15:03.032Z,15.91
2018-09-10T04:16:03.088Z,15.88
2018-09-10T04:17:03.179Z,15.97
2018-09-10T04:18:03.220Z,15.98
2018-09-10T04:19:03.361Z,16.01
2018-09-10T04:20:03.344Z,15.98
2018-09-10T04:21:03.408Z,15.97
2018-09-10T04:22:03.472Z,16.08
2018-09-10T04:23:03.536Z,16.09
2018-09-10T04:24:03.604Z,16.09
2018-09-10T04:25:03.668Z,16.08
2018-09-10T04:26:03.742Z,16.13
2018-09-10T04:27:03.797Z,16.17
2018-09-10T04:28:03.852Z,16.17
2018-09-10T04:29:03.924Z,16.17
2018-09-10T04:30:03.988Z,16.24
2018-09-10T04:31:04.045Z,16.21
2018-09-10T04:32:04.113Z,16.20
2018-09-10T04:33:04.172Z,16.28
2018-09-10T04:34:04.236Z,16.35
2018-09-10T04:35:04.328Z,16.38
2018-09-10T04:36:04.438Z,16.41
2018-09-10T04:37:04.428Z,16.53
2018-09-10T04:38:04.493Z,16.51
2018-09-10T04:39:04.557Z,16.54
2018-09-10T04:40:04.625Z,16.60
2018-09-10T04:41:04.693Z,16.61
2018-09-10T04:42:04.759Z,16.61
2018-09-10T04:43:04.813Z,16.60
2018-09-10T04:44:04.873Z,16.57
2018-09-10T04:45:04.946Z,16.64
2018-09-10T04:46:05.010Z,16.61
2018-09-10T04:47:05.065Z,16.61
2018-09-10T04:48:05.131Z,16.65
2018-09-10T04:49:05.193Z,16.57
2018-09-10T04:50:05.414Z,16.65
2018-09-10T04:51:05.322Z,16.60
2018-09-10T04:52:05.385Z,16.61
2018-09-10T04:53:05.449Z,16.64
2018-09-10T04:54:05.518Z,16.64
2018-09-10T04:55:05.585Z,16.65
2018-09-10T04:56:05.661Z,16.64
2018-09-10T04:57:05.706Z,16.54
2018-09-10T04:58:05.828Z,16.54
2018-09-10T04:59:05.834Z,16.50
2018-09-10T05:00:05.902Z,16.47
2018-09-10T05:01:05.966Z,16.49
2018-09-10T05:02:06.027Z,16.41
2018-09-10T05:03:06.097Z,16.38
2018-09-10T05:04:06.154Z,16.38
2018-09-10T05:05:06.222Z,16.35
2018-09-10T05:06:06.302Z,16.42
2018-09-10T05:07:06.348Z,16.39
2018-09-10T05:08:06.410Z,16.35
2018-09-10T05:09:06.474Z,16.39
2018-09-10T05:10:06.590Z,16.36
2018-09-10T05:11:06.605Z,16.33
2018-09-10T05:12:06.670Z,16.38
2018-09-10T05:13:06.726Z,16.42
2018-09-10T05:14:06.866Z,16.39
2018-09-10T05:15:06.866Z,16.43
2018-09-10T05:16:06.926Z,16.46
2018-09-10T05:17:06.990Z,16.43
2018-09-10T05:18:07.046Z,16.47
2018-09-10T05:19:07.110Z,16.49
2018-09-10T05:20:07.174Z,16.47
2018-09-10T05:21:07.262Z,16.50
2018-09-10T05:22:07.345Z,16.54
2018-09-10T05:23:07.390Z,16.51
2018-09-10T05:24:07.430Z,16.51
2018-09-10T05:25:07.494Z,16.47
2018-09-10T05:26:07.575Z,16.50
2018-09-10T05:27:07.630Z,16.50
2018-09-10T05:28:07.735Z,16.51
2018-09-10T05:29:07.750Z,16.56
2018-09-10T05:30:07.818Z,16.54
2018-09-10T05:31:07.887Z,16.50
2018-09-10T05:32:07.955Z,16.54
2018-09-10T05:33:08.007Z,16.64
2018-09-10T05:34:08.071Z,16.64
2018-09-10T05:35:08.155Z,16.61
2018-09-10T05:36:08.331Z,16.61
2018-09-10T05:37:08.263Z,16.66
2018-09-10T05:38:08.328Z,16.54
2018-09-10T05:39:08.465Z,16.54
2018-09-10T05:40:08.455Z,16.60
2018-09-10T05:41:08.529Z,16.75
2018-09-10T05:42:08.588Z,16.64
2018-09-10T05:43:08.647Z,16.64
2018-09-10T05:44:08.711Z,16.69
2018-09-10T05:45:08.775Z,16.64
2018-09-10T05:46:08.847Z,16.71
2018-09-10T05:47:08.911Z,16.78
2018-09-10T05:48:08.967Z,16.69
2018-09-10T05:49:09.034Z,16.81
2018-09-10T05:50:09.100Z,16.87
2018-09-10T05:51:09.392Z,16.87
2018-09-10T05:52:09.224Z,16.90
2018-09-10T05:53:09.312Z,16.86
2018-09-10T05:54:09.352Z,16.89
2018-09-10T05:55:09.416Z,16.89
2018-09-10T05:56:09.484Z,16.89
2018-09-10T05:57:09.551Z,16.84
2018-09-10T05:58:09.608Z,16.84
2018-09-10T05:59:09.678Z,16.87
2018-09-10T06:00:09.736Z,16.93
2018-09-10T06:01:09.804Z,16.97
2018-09-10T06:02:09.868Z,16.99
2018-09-10T06:03:09.928Z,16.97
2018-09-10T06:04:09.992Z,16.97
2018-09-10T06:05:10.063Z,17.04
2018-09-10T06:06:10.208Z,17.08
2018-09-10T06:07:10.186Z,17.08
2018-09-10T06:08:10.249Z,17.12
2018-09-10T06:09:10.313Z,17.22
2018-09-10T06:10:10.377Z,17.14
2018-09-10T06:11:10.449Z,17.20
2018-09-10T06:12:10.513Z,17.22
2018-09-10T06:13:10.573Z,17.20
2018-09-10T06:14:10.636Z,17.20
2018-09-10T06:15:10.701Z,17.23
2018-09-10T06:16:10.769Z,17.30
2018-09-10T06:17:10.833Z,17.24
2018-09-10T06:18:10.899Z,17.31
2018-09-10T06:19:10.953Z,17.27
2018-09-10T06:20:11.017Z,17.34
2018-09-10T06:21:11.126Z,17.29
2018-09-10T06:22:11.196Z,17.38
2018-09-10T06:23:11.209Z,17.41
2018-09-10T06:24:11.276Z,17.46
2018-09-10T06:25:11.351Z,17.45
2018-09-10T06:26:11.428Z,17.44
2018-09-10T06:27:11.477Z,17.51
2018-09-10T06:28:11.549Z,17.52
2018-09-10T06:29:11.597Z,17.56
2018-09-10T06:30:11.714Z,17.52
2018-09-10T06:31:11.737Z,17.57
2018-09-10T06:32:11.813Z,17.64
2018-09-10T06:33:11.858Z,17.71
2018-09-10T06:34:11.970Z,17.80
2018-09-10T06:35:11.982Z,17.78
2018-09-10T06:36:12.053Z,17.85
2018-09-10T06:37:12.185Z,17.94
2018-09-10T06:38:12.177Z,17.83
2018-09-10T06:39:12.242Z,17.98
2018-09-10T06:40:12.306Z,17.97
2018-09-10T06:41:12.378Z,18.00
2018-09-10T06:42:12.442Z,18.01
2018-09-10T06:43:12.497Z,18.04
2018-09-10T06:44:12.563Z,18.08
2018-09-10T06:45:12.628Z,18.18
2018-09-10T06:46:12.698Z,18.15
2018-09-10T06:47:12.763Z,18.20
2018-09-10T06:48:12.818Z,18.18
2018-09-10T06:49:12.887Z,18.20
2018-09-10T06:50:12.950Z,18.18
2018-09-10T06:51:13.022Z,18.34
2018-09-10T06:52:13.086Z,18.34
2018-09-10T06:53:13.142Z,18.43
2018-09-10T06:54:13.210Z,18.35
2018-09-10T06:55:13.270Z,18.47
2018-09-10T06:56:13.342Z,18.52
2018-09-10T06:57:13.406Z,18.52
2018-09-10T06:58:13.469Z,18.52
2018-09-10T06:59:13.530Z,18.60
2018-09-10T07:00:13.618Z,18.60
2018-09-10T07:01:13.675Z,18.66
2018-09-10T07:02:13.733Z,18.70
2018-09-10T07:03:13.791Z,18.71
2018-09-10T07:04:13.856Z,18.74
2018-09-10T07:05:13.920Z,18.71
2018-09-10T07:06:14.009Z,18.70
2018-09-10T07:07:14.063Z,18.80
2018-09-10T07:08:14.115Z,18.83
2018-09-10T07:09:14.177Z,18.90
2018-09-10T07:10:14.243Z,18.93
2018-09-10T07:11:14.311Z,18.93
2018-09-10T07:12:14.511Z,18.96
2018-09-10T07:13:14.462Z,18.98
2018-09-10T07:14:14.503Z,19.16
2018-09-10T07:15:14.567Z,19.16
2018-09-10T07:16:14.631Z,19.24
2018-09-10T07:17:14.704Z,19.21
2018-09-10T07:18:14.768Z,19.26
2018-09-10T07:19:14.834Z,19.33
2018-09-10T07:20:14.891Z,19.39
2018-09-10T07:21:14.955Z,19.36
2018-09-10T07:22:15.027Z,19.45
2018-09-10T07:23:15.093Z,19.44
2018-09-10T07:24:15.151Z,19.44
2018-09-10T07:25:15.215Z,19.55
2018-09-10T07:26:15.280Z,19.59
2018-09-10T07:27:15.351Z,19.63
2018-09-10T07:28:15.415Z,19.74
2018-09-10T07:29:15.472Z,19.81
2018-09-10T07:30:15.551Z,19.81
2018-09-10T07:31:15.608Z,19.92
2018-09-10T07:32:15.681Z,19.96
2018-09-10T07:33:15.748Z,20.00
2018-09-10T07:34:15.804Z,20.02
2018-09-10T07:35:15.868Z,20.00
2018-09-10T07:36:15.932Z,19.96
2018-09-10T07:37:16.004Z,19.79
2018-09-10T07:38:16.072Z,19.74
2018-09-10T07:39:16.132Z,19.88
2018-09-10T07:40:16.196Z,19.82
2018-09-10T07:41:16.260Z,19.91
2018-09-10T07:42:16.348Z,19.91
2018-09-10T07:43:16.392Z,20.02
2018-09-10T07:44:16.461Z,20.04
2018-09-10T07:45:16.524Z,20.03
2018-09-10T07:46:16.588Z,20.06
2018-09-10T07:47:16.660Z,20.00
2018-09-10T07:48:16.724Z,20.03
2018-09-10T07:49:16.794Z,19.99
2018-09-10T07:50:16.867Z,19.95
2018-09-10T07:51:16.916Z,19.95
2018-09-10T07:52:16.988Z,19.92
2018-09-10T07:53:17.056Z,20.02
2018-09-10T07:54:17.112Z,20.00
2018-09-10T07:55:17.185Z,20.04
2018-09-10T07:56:17.244Z,20.10
2018-09-10T07:57:17.309Z,20.29
2018-09-10T07:58:17.404Z,20.32
2018-09-10T07:59:17.445Z,20.31
2018-09-10T08:00:17.505Z,20.40
2018-09-10T08:01:17.572Z,20.36
2018-09-10T08:02:17.636Z,20.34
2018-09-10T08:03:17.709Z,20.47
2018-09-10T08:04:17.776Z,20.59
2018-09-10T08:05:17.836Z,20.51
2018-09-10T08:06:17.901Z,20.37
2018-09-10T08:07:17.968Z,20.29
2018-09-10T08:08:18.036Z,20.31
2018-09-10T08:09:18.130Z,20.40
2018-09-10T08:10:18.165Z,20.36
2018-09-10T08:11:18.229Z,20.39
2018-09-10T08:12:18.301Z,20.32
2018-09-10T08:13:18.369Z,20.37
2018-09-10T08:14:18.433Z,20.34
2018-09-10T08:15:18.493Z,20.31
2018-09-10T08:16:18.557Z,20.25
2018-09-10T08:17:18.627Z,20.32
2018-09-10T08:18:18.697Z,20.32
2018-09-10T08:19:18.763Z,20.47
2018-09-10T08:20:18.821Z,20.55
2018-09-10T08:21:18.889Z,20.60
2018-09-10T08:22:18.953Z,20.75
2018-09-10T08:23:19.026Z,20.80
2018-09-10T08:24:19.171Z,20.70
2018-09-10T08:25:19.199Z,20.70
2018-09-10T08:26:19.218Z,20.77
2018-09-10T08:27:19.288Z,20.92
2018-09-10T08:28:19.354Z,21.09
2018-09-10T08:29:19.422Z,21.05
2018-09-10T08:30:19.494Z,21.14
2018-09-10T08:31:19.550Z,21.11
2018-09-10T08:32:19.615Z,21.09
2018-09-10T08:33:19.685Z,21.15
2018-09-10T08:34:19.754Z,21.12
2018-09-10T08:35:19.818Z,21.15
2018-09-10T08:36:19.877Z,21.07
2018-09-10T08:37:19.947Z,21.18
2018-09-10T08:38:20.018Z,21.22
2018-09-10T08:39:20.089Z,21.32
2018-09-10T08:40:20.146Z,21.40
2018-09-10T08:41:20.210Z,21.95
2018-09-10T08:42:20.280Z,22.35
2018-09-10T08:43:20.350Z,23.56
2018-09-10T08:44:20.419Z,24.36
2018-09-10T08:45:20.482Z,24.89
2018-09-10T08:46:20.547Z,25.01
2018-09-10T08:47:20.614Z,24.69
2018-09-10T08:48:20.713Z,24.58
2018-09-10T08:49:20.758Z,24.74
2018-09-10T08:50:20.818Z,25.25
2018-09-10T08:51:20.887Z,25.83
2018-09-10T08:52:20.956Z,26.31
2018-09-10T08:53:21.031Z,26.52
2018-09-10T08:54:21.314Z,26.73
2018-09-10T08:55:21.254Z,26.63
2018-09-10T08:56:21.345Z,26.62
2018-09-10T08:57:21.298Z,26.33
2018-09-10T08:58:21.471Z,25.81
2018-09-10T08:59:21.435Z,25.58
2018-09-10T09:00:21.548Z,25.40
2018-09-10T09:01:21.575Z,25.21
2018-09-10T09:02:21.642Z,24.81
2018-09-10T09:03:21.719Z,24.78
2018-09-10T09:04:21.787Z,24.95
2018-09-10T09:05:21.851Z,25.11
2018-09-10T09:06:21.989Z,25.22
2018-09-10T09:07:21.991Z,25.28
2018-09-10T09:08:22.067Z,25.43
2018-09-10T09:09:22.145Z,25.55
2018-09-10T09:10:22.199Z,25.68
2018-09-10T09:11:22.267Z,25.60
2018-09-10T09:12:22.335Z,25.78
2018-09-10T09:13:22.411Z,25.91
2018-09-10T09:14:22.483Z,26.44
2018-09-10T09:15:22.550Z,26.28
2018-09-10T09:16:22.615Z,26.31
2018-09-10T09:17:22.735Z,26.63
2018-09-10T09:18:22.763Z,26.60
2018-09-10T09:19:22.831Z,26.62
2018-09-10T09:20:22.891Z,26.34
2018-09-10T09:21:22.964Z,26.55
2018-09-10T09:22:23.036Z,26.89
2018-09-10T09:23:23.379Z,26.84
2018-09-10T09:24:23.172Z,26.97
2018-09-10T09:25:23.244Z,26.92
2018-09-10T09:26:23.318Z,26.84
2018-09-10T09:27:23.388Z,26.80
2018-09-10T09:28:23.460Z,26.70
2018-09-10T09:29:23.532Z,26.40
2018-09-10T09:30:23.657Z,26.40
2018-09-10T09:31:23.671Z,26.13
2018-09-10T09:32:23.736Z,26.16
2018-09-10T09:33:23.818Z,26.26
2018-09-10T09:34:23.884Z,26.36
2018-09-10T09:35:23.948Z,26.48
2018-09-10T09:36:24.098Z,26.80
2018-09-10T09:37:24.090Z,27.07
2018-09-10T09:38:24.252Z,27.26
2018-09-10T09:39:24.234Z,27.36
2018-09-10T09:40:24.296Z,27.36
2018-09-10T09:41:24.368Z,27.75
2018-09-10T09:42:24.440Z,27.86
2018-09-10T09:43:24.538Z,27.55
2018-09-10T09:44:24.589Z,27.60
2018-09-10T09:45:24.652Z,28.04
2018-09-10T09:46:24.720Z,28.00
2018-09-10T09:47:24.792Z,28.08
2018-09-10T09:48:24.868Z,28.30
2018-09-10T09:49:24.940Z,28.33
2018-09-10T09:50:25.005Z,28.17
2018-09-10T09:51:25.077Z,28.19
2018-09-10T09:52:25.149Z,28.48
2018-09-10T09:53:25.373Z,28.56
2018-09-10T09:54:25.288Z,28.64
2018-09-10T09:55:25.361Z,28.84
2018-09-10T09:56:25.432Z,29.04
2018-09-10T09:57:25.504Z,29.01
2018-09-10T09:58:25.581Z,28.98
2018-09-10T09:59:25.654Z,28.97
2018-09-10T10:00:25.717Z,28.82
2018-09-10T10:01:25.790Z,29.01
2018-09-10T10:02:25.861Z,28.67
2018-09-10T10:03:25.937Z,28.44
2018-09-10T10:04:26.069Z,28.29
2018-09-10T10:05:26.072Z,28.12
2018-09-10T10:06:26.149Z,27.33
2018-09-10T10:07:26.217Z,26.93
2018-09-10T10:08:26.301Z,26.96
2018-09-10T10:09:26.457Z,26.71
2018-09-10T10:10:26.433Z,26.62
2018-09-10T10:11:26.501Z,26.28
2018-09-10T10:12:26.683Z,26.22
2018-09-10T10:13:26.645Z,25.98
2018-09-10T10:14:26.721Z,26.25
2018-09-10T10:15:26.793Z,26.18
2018-09-10T10:16:26.918Z,26.19
2018-09-10T10:17:26.929Z,26.45
2018-09-10T10:18:27.002Z,26.62
2018-09-10T10:19:27.181Z,26.85
2018-09-10T10:20:27.142Z,27.14
2018-09-10T10:21:27.214Z,27.07
2018-09-10T10:22:27.285Z,26.83
2018-09-10T10:23:27.354Z,26.93
2018-09-10T10:24:27.433Z,27.45
2018-09-10T10:25:27.502Z,27.32
2018-09-10T10:26:27.572Z,26.96
2018-09-10T10:27:27.638Z,26.85
2018-09-10T10:28:27.710Z,26.52
2018-09-10T10:29:27.810Z,26.29
2018-09-10T10:30:27.858Z,26.60
2018-09-10T10:31:27.922Z,26.65
2018-09-10T10:32:27.994Z,26.95
2018-09-10T10:33:28.062Z,27.05
2018-09-10T10:34:28.134Z,27.17
2018-09-10T10:35:28.298Z,27.26
2018-09-10T10:36:28.274Z,27.59
2018-09-10T10:37:28.350Z,28.11
2018-09-10T10:38:28.423Z,28.56
2018-09-10T10:39:28.486Z,28.59
2018-09-10T10:40:28.562Z,28.78
2018-09-10T10:41:28.635Z,28.59
2018-09-10T10:42:28.702Z,28.69
2018-09-10T10:43:28.770Z,28.69
2018-09-10T10:44:28.845Z,28.39
2018-09-10T10:45:28.921Z,28.01
2018-09-10T10:46:28.995Z,27.27
2018-09-10T10:47:29.117Z,27.32
2018-09-10T10:48:29.122Z,27.17
2018-09-10T10:49:29.197Z,27.26
2018-09-10T10:50:29.270Z,27.27
2018-09-10T10:51:29.354Z,26.74
2018-09-10T10:52:29.407Z,26.63
2018-09-10T10:53:29.481Z,26.40
2018-09-10T10:54:29.553Z,26.26
2018-09-10T10:55:29.622Z,26.33
2018-09-10T10:56:29.699Z,26.44
2018-09-10T10:57:29.767Z,26.71
2018-09-10T10:58:29.831Z,26.65
2018-09-10T10:59:29.944Z,26.63
2018-09-10T11:00:29.976Z,26.70
2018-09-10T11:01:30.054Z,26.65
2018-09-10T11:02:30.119Z,26.00
2018-09-10T11:03:30.187Z,26.03
2018-09-10T11:04:30.256Z,26.02
2018-09-10T11:05:30.328Z,25.93
2018-09-10T11:06:30.411Z,25.65
2018-09-10T11:07:30.472Z,25.59
2018-09-10T11:08:30.536Z,25.68
2018-09-10T11:09:30.612Z,25.91
2018-09-10T11:10:30.682Z,26.23
2018-09-10T11:11:30.755Z,26.31
2018-09-10T11:12:30.824Z,25.93
2018-09-10T11:13:30.887Z,25.84
2018-09-10T11:14:30.960Z,25.95
2018-09-10T11:15:31.044Z,26.37
2018-09-10T11:16:31.333Z,26.41
2018-09-10T11:17:31.176Z,26.56
2018-09-10T11:18:31.241Z,26.65
2018-09-10T11:19:31.312Z,26.77
2018-09-10T11:20:31.380Z,26.93
2018-09-10T11:21:31.461Z,26.75
2018-09-10T11:22:31.528Z,26.58
2018-09-10T11:23:31.592Z,26.43
2018-09-10T11:24:31.669Z,26.47
2018-09-10T11:25:31.732Z,26.38
2018-09-10T11:26:31.816Z,26.34
2018-09-10T11:27:31.889Z,26.15
2018-09-10T11:28:31.945Z,26.06
2018-09-10T11:29:32.012Z,26.05
2018-09-10T11:30:32.084Z,25.91
2018-09-10T11:31:32.248Z,26.06
2018-09-10T11:32:32.228Z,26.05
2018-09-10T11:33:32.295Z,26.23
2018-09-10T11:34:32.393Z,26.33
2018-09-10T11:35:32.437Z,26.29
2018-09-10T11:36:32.513Z,26.25
2018-09-10T11:37:32.580Z,26.09
2018-09-10T11:38:32.641Z,26.26
2018-09-10T11:39:32.717Z,26.16
2018-09-10T11:40:32.785Z,26.34
2018-09-10T11:41:32.860Z,26.19
2018-09-10T11:42:32.933Z,26.23
2018-09-10T11:43:32.994Z,26.28
2018-09-10T11:44:33.067Z,26.19
2018-09-10T11:45:33.129Z,26.21
2018-09-10T11:46:33.315Z,26.36
2018-09-10T11:47:33.273Z,26.33
2018-09-10T11:48:33.345Z,26.45
2018-09-10T11:49:33.413Z,26.60
2018-09-10T11:50:33.488Z,26.60
2018-09-10T11:51:33.561Z,26.65
2018-09-10T11:52:33.629Z,26.95
2018-09-10T11:53:33.697Z,27.17
2018-09-10T11:54:33.765Z,27.32
2018-09-10T11:55:33.861Z,27.27
2018-09-10T11:56:33.905Z,27.05
2018-09-10T11:57:33.981Z,27.12
2018-09-10T11:58:34.049Z,27.02
2018-09-10T11:59:34.113Z,27.07
2018-09-10T12:00:34.189Z,27.07
2018-09-10T12:01:34.694Z,26.59
2018-09-10T12:02:34.325Z,26.38
2018-09-10T12:03:34.397Z,26.15
2018-09-10T12:04:34.465Z,26.19
2018-09-10T12:05:34.533Z,26.28
2018-09-10T12:06:34.605Z,26.31
2018-09-10T12:07:34.786Z,26.18
2018-09-10T12:08:34.749Z,26.06
2018-09-10T12:09:34.818Z,26.02
2018-09-10T12:10:34.885Z,26.00
2018-09-10T12:11:34.961Z,25.87
2018-09-10T12:12:35.033Z,25.91
2018-09-10T12:13:35.144Z,25.88
2018-09-10T12:14:35.165Z,25.98
2018-09-10T12:15:35.233Z,25.80
2018-09-10T12:16:35.305Z,25.90
2018-09-10T12:17:35.382Z,25.90
2018-09-10T12:18:35.450Z,25.88
2018-09-10T12:19:35.516Z,25.88
2018-09-10T12:20:35.586Z,25.84
2018-09-10T12:21:35.682Z,25.77
2018-09-10T12:22:35.730Z,25.63
2018-09-10T12:23:35.801Z,25.60
2018-09-10T12:24:35.865Z,25.43
2018-09-10T12:25:35.929Z,25.48
2018-09-10T12:26:36.033Z,25.40
2018-09-10T12:27:36.177Z,25.43
2018-09-10T12:28:36.145Z,25.36
2018-09-10T12:29:36.209Z,25.29
2018-09-10T12:30:36.279Z,25.17
2018-09-10T12:31:36.362Z,25.14
2018-09-10T12:32:36.422Z,24.99
2018-09-10T12:33:36.493Z,24.74
2018-09-10T12:34:36.558Z,24.78
2018-09-10T12:35:36.627Z,24.69
2018-09-10T12:36:36.693Z,24.77
2018-09-10T12:37:36.774Z,24.91
2018-09-10T12:38:36.860Z,24.95
2018-09-10T12:39:36.927Z,24.98
2018-09-10T12:40:36.978Z,25.03
2018-09-10T12:41:37.038Z,25.08
2018-09-10T12:42:37.375Z,25.07
2018-09-10T12:43:37.177Z,25.08
2018-09-10T12:44:37.252Z,25.07
2018-09-10T12:45:37.317Z,25.17
2018-09-10T12:46:37.476Z,25.17
2018-09-10T12:47:37.458Z,24.96
2018-09-10T12:48:37.525Z,25.06
2018-09-10T12:49:37.590Z,25.06
2018-09-10T12:50:37.658Z,25.07
2018-09-10T12:51:37.726Z,25.16
2018-09-10T12:52:37.802Z,25.13
2018-09-10T12:53:37.874Z,25.17